Weather at Double Eagle II Airport

Public forecast

Using degrees Fahrenheit for public forecast. Weather courtesy of forecast.io.

Current aviation weather report (METAR) for Double Eagle II Airport

Report is more than 2 hours old.

2023/02/08 14:47 (retrieved 2 hours ago)

KAEG 081447Z 25004KT 10SM FEW002 M06/M07 A3020

Aviation forecast (TAF) for Double Eagle II Airport

2023/02/08 15:57 Ammendment (retrieved 52 minutes ago)

TAF AMD KAEG 081454Z 0815/0912 VRB06KT P6SM SCT005 TEMPO 0815/0816 2SM BR BKN002 FM081600 30008KT P6SM SCT010 FM081900 30015G22KT P6SM SCT050 SCT090 FM090100 29007KT P6SM FEW050 FM091000 33012G20KT P6SM FEW090